Time;durP1;ratioP1;P1;durP2;ratioP2;P2;SDS_P1;SDS_P2;PMS_P1;PMS_P2;Temp;Humidity;BMP_temperature;BMP_pressure;BME280_temperature;BME280_humidity;BME280_pressure;Samples;Min_cycle;Max_cycle;Signal;HPM_P1;HPM_P2
2022/01/19 00:00:41;;;;;;;31.38;18.67;;;;;;;;;;5097407;28;20035;-77
2022/01/19 00:03:07;;;;;;;31.73;18.60;;;;;;;;;;5098017;28;20039;-77
2022/01/19 00:05:33;;;;;;;30.70;18.02;;;;;;;;;;5097656;28;20028;-77
2022/01/19 00:08:00;;;;;;;31.92;18.42;;;;;;;;;;5097316;28;20077;-77
2022/01/19 00:10:28;;;;;;;28.67;18.10;;;;;;;;;;5097687;28;20160;-77
2022/01/19 00:12:57;;;;;;;31.38;17.60;;;;;;;;;;5097574;28;20063;-77
2022/01/19 00:15:24;;;;;;;30.15;17.17;;;;;;;;;;5096421;28;20056;-77
2022/01/19 00:17:56;;;;;;;31.17;17.50;;;;;;;;;;5096532;28;20040;-77
2022/01/19 00:20:23;;;;;;;29.55;17.30;;;;;;;;;;5097349;28;20036;-77
2022/01/19 00:22:50;;;;;;;26.33;16.50;;;;;;;;;;5097589;28;20063;-77
2022/01/19 00:25:16;;;;;;;27.00;16.90;;;;;;;;;;5096955;28;20434;-77
2022/01/19 00:27:42;;;;;;;29.80;18.17;;;;;;;;;;5096922;28;20036;-77
2022/01/19 00:30:09;;;;;;;27.50;17.38;;;;;;;;;;5095716;28;20356;-77
2022/01/19 00:32:35;;;;;;;31.95;18.15;;;;;;;;;;5096813;28;20051;-77
2022/01/19 00:35:02;;;;;;;29.33;17.48;;;;;;;;;;5096638;28;20058;-77
2022/01/19 00:37:28;;;;;;;31.13;16.70;;;;;;;;;;5096659;28;20032;-77
2022/01/19 00:39:55;;;;;;;30.70;17.13;;;;;;;;;;5096725;28;20040;-77
2022/01/19 00:42:21;;;;;;;32.20;19.08;;;;;;;;;;5096377;28;20142;-77
2022/01/19 00:44:47;;;;;;;33.03;18.50;;;;;;;;;;5096425;28;20103;-77
2022/01/19 00:47:14;;;;;;;35.47;18.55;;;;;;;;;;5096271;28;20036;-77
2022/01/19 00:49:42;;;;;;;34.55;18.65;;;;;;;;;;5096096;28;20040;-77
2022/01/19 00:52:09;;;;;;;35.55;19.13;;;;;;;;;;5096585;28;20040;-77
2022/01/19 00:54:36;;;;;;;37.08;19.73;;;;;;;;;;5096454;28;20067;-77
2022/01/19 00:57:02;;;;;;;35.28;18.77;;;;;;;;;;5096210;28;20035;-77
2022/01/19 00:59:28;;;;;;;37.95;20.25;;;;;;;;;;5095970;28;20352;-77
2022/01/19 01:01:55;;;;;;;35.35;19.23;;;;;;;;;;5096269;28;20032;-77
2022/01/19 01:04:21;;;;;;;31.70;17.70;;;;;;;;;;5095758;28;20565;-77
2022/01/19 01:06:47;;;;;;;29.38;16.80;;;;;;;;;;5096170;28;20096;-77
2022/01/19 01:09:13;;;;;;;34.90;17.38;;;;;;;;;;5096341;28;20109;-77
2022/01/19 01:11:47;;;;;;;28.23;16.05;;;;;;;;;;5095778;28;20047;-77
2022/01/19 01:17:08;;;;;;;32.92;16.30;;;;;;;;;;5096248;28;20071;-77
2022/01/19 01:19:27;;;;;;;28.30;16.38;;;;;;;;;;5095820;28;20419;-77
2022/01/19 01:21:53;;;;;;;30.00;15.93;;;;;;;;;;5096185;28;20067;-77
2022/01/19 01:24:19;;;;;;;29.20;16.33;;;;;;;;;;5096033;28;20118;-77
2022/01/19 01:26:46;;;;;;;29.65;15.43;;;;;;;;;;5096351;28;20140;-77
2022/01/19 01:29:12;;;;;;;34.10;16.77;;;;;;;;;;5096287;28;20118;-77
2022/01/19 01:31:38;;;;;;;30.55;15.93;;;;;;;;;;5095944;28;20115;-77
2022/01/19 01:34:04;;;;;;;29.67;16.63;;;;;;;;;;5095460;28;20059;-77
2022/01/19 01:36:30;;;;;;;29.38;16.30;;;;;;;;;;5096204;28;20123;-77
2022/01/19 01:38:56;;;;;;;32.42;17.00;;;;;;;;;;5096156;28;20475;-77
2022/01/19 01:41:23;;;;;;;27.67;15.25;;;;;;;;;;5095815;28;20039;-77
2022/01/19 01:43:49;;;;;;;28.73;16.10;;;;;;;;;;5095775;28;20039;-78
2022/01/19 01:46:33;;;;;;;29.20;15.63;;;;;;;;;;5095857;28;20050;-77
2022/01/19 01:49:00;;;;;;;26.00;15.35;;;;;;;;;;5095816;28;20039;-77
2022/01/19 01:54:10;;;;;;;27.83;15.32;;;;;;;;;;5095111;28;20077;-77
2022/01/19 01:56:37;;;;;;;26.05;14.20;;;;;;;;;;5095428;28;20101;-77
2022/01/19 01:59:03;;;;;;;29.58;15.90;;;;;;;;;;5095817;28;20039;-77
2022/01/19 02:01:29;;;;;;;25.35;14.00;;;;;;;;;;5095480;28;20088;-77
2022/01/19 02:03:55;;;;;;;25.05;14.35;;;;;;;;;;5094970;28;20118;-77
2022/01/19 02:06:32;;;;;;;27.92;15.48;;;;;;;;;;5095115;28;20046;-77
2022/01/19 02:09:12;;;;;;;29.67;14.82;;;;;;;;;;5095971;28;20070;-77
2022/01/19 02:23:10;;;;;;;26.15;13.90;;;;;;;;;;5094369;28;20491;-77
2022/01/19 02:25:41;;;;;;;24.65;12.80;;;;;;;;;;5094902;28;20028;-77
2022/01/19 02:41:50;;;;;;;23.70;13.60;;;;;;;;;;5089795;28;20054;-77
2022/01/19 02:44:31;;;;;;;29.13;15.07;;;;;;;;;;5094408;28;20059;-77
2022/01/19 02:49:42;;;;;;;27.83;14.55;;;;;;;;;;5093904;28;20593;-77
2022/01/19 02:52:08;;;;;;;28.40;15.05;;;;;;;;;;5094637;28;20043;-77
2022/01/19 02:54:34;;;;;;;25.00;12.95;;;;;;;;;;5094266;28;20040;-77
2022/01/19 02:57:02;;;;;;;23.95;13.45;;;;;;;;;;5094853;28;20126;-77
2022/01/19 02:59:44;;;;;;;26.00;14.13;;;;;;;;;;5094694;28;20040;-77
2022/01/19 03:10:24;;;;;;;23.60;13.20;;;;;;;;;;5093893;28;20107;-77
2022/01/19 03:12:50;;;;;;;25.90;13.27;;;;;;;;;;5094398;28;20032;-77
2022/01/19 03:15:17;;;;;;;24.73;13.70;;;;;;;;;;5092884;28;20390;-77
2022/01/19 03:17:43;;;;;;;23.33;12.50;;;;;;;;;;5094199;28;20036;-77
2022/01/19 03:20:10;;;;;;;21.02;12.05;;;;;;;;;;5094236;28;20043;-77
2022/01/19 03:22:43;;;;;;;23.05;12.48;;;;;;;;;;5094590;28;20119;-77
2022/01/19 03:25:12;;;;;;;20.20;11.57;;;;;;;;;;5094832;28;20036;-77
2022/01/19 03:27:46;;;;;;;21.48;12.18;;;;;;;;;;5094826;28;20036;-77
2022/01/19 03:30:12;;;;;;;21.58;11.70;;;;;;;;;;5094831;28;20040;-77
2022/01/19 03:32:38;;;;;;;20.67;12.05;;;;;;;;;;5094501;28;20110;-77
2022/01/19 03:35:05;;;;;;;17.80;10.15;;;;;;;;;;5093997;28;20121;-76
2022/01/19 03:37:31;;;;;;;16.75;10.45;;;;;;;;;;5094349;28;20036;-77
2022/01/19 03:39:57;;;;;;;19.92;11.48;;;;;;;;;;5094408;28;20039;-77
2022/01/19 03:42:23;;;;;;;18.70;10.63;;;;;;;;;;5094633;28;20459;-77
2022/01/19 03:44:49;;;;;;;19.02;10.20;;;;;;;;;;5094064;28;20036;-77
2022/01/19 03:47:17;;;;;;;18.00;9.48;;;;;;;;;;5094088;28;20047;-77
2022/01/19 03:49:44;;;;;;;17.98;10.52;;;;;;;;;;5094633;28;20094;-78
2022/01/19 03:52:10;;;;;;;17.70;9.65;;;;;;;;;;5095978;28;20040;-77
2022/01/19 03:54:37;;;;;;;17.60;8.57;;;;;;;;;;5097579;28;20044;-78
2022/01/19 03:57:03;;;;;;;15.48;8.88;;;;;;;;;;5097483;28;20117;-77
2022/01/19 03:59:30;;;;;;;16.73;8.52;;;;;;;;;;5097670;28;20040;-77
2022/01/19 04:01:57;;;;;;;17.00;9.27;;;;;;;;;;5098038;28;20039;-76
2022/01/19 04:07:01;;;;;;;14.63;8.43;;;;;;;;;;5097174;28;20048;-77
2022/01/19 04:09:27;;;;;;;15.25;8.00;;;;;;;;;;5098070;28;20085;-77
2022/01/19 04:11:54;;;;;;;20.60;8.50;;;;;;;;;;5098134;28;20051;-77
2022/01/19 04:14:24;;;;;;;15.48;7.93;;;;;;;;;;5097211;28;20040;-77
2022/01/19 04:16:52;;;;;;;15.43;7.78;;;;;;;;;;5096809;28;20036;-77
2022/01/19 04:21:54;;;;;;;12.55;7.07;;;;;;;;;;5096890;28;20043;-77
2022/01/19 04:24:20;;;;;;;14.63;7.25;;;;;;;;;;5097239;28;20069;-77
2022/01/19 04:26:56;;;;;;;13.70;7.63;;;;;;;;;;5097226;28;20036;-77
2022/01/19 04:29:23;;;;;;;12.38;7.22;;;;;;;;;;5096946;28;20471;-77
2022/01/19 04:31:49;;;;;;;11.02;6.75;;;;;;;;;;5096872;28;20072;-77
2022/01/19 04:34:17;;;;;;;9.98;5.82;;;;;;;;;;5096687;28;20070;-77
2022/01/19 04:43:48;;;;;;;12.95;7.05;;;;;;;;;;5097193;28;20036;-77
2022/01/19 05:06:03;;;;;;;5.30;3.72;;;;;;;;;;5096000;28;20039;-77
2022/01/19 05:13:50;;;;;;;5.47;3.72;;;;;;;;;;5075527;28;20437;-78
2022/01/19 05:16:16;;;;;;;7.28;4.25;;;;;;;;;;5073333;28;20049;-78
2022/01/19 05:18:42;;;;;;;5.80;3.35;;;;;;;;;;5067696;28;20076;-78
2022/01/19 05:21:08;;;;;;;5.00;3.20;;;;;;;;;;5055980;28;20032;-78
2022/01/19 05:23:34;;;;;;;7.18;3.40;;;;;;;;;;5057327;28;20491;-78
2022/01/19 05:26:00;;;;;;;11.45;5.93;;;;;;;;;;5074212;28;20044;-78
2022/01/19 05:28:26;;;;;;;9.57;5.53;;;;;;;;;;5075523;28;20032;-78
2022/01/19 05:30:52;;;;;;;7.95;4.90;;;;;;;;;;5055687;28;20037;-74
2022/01/19 05:33:18;;;;;;;7.05;4.13;;;;;;;;;;5055130;28;20037;-74
2022/01/19 05:35:45;;;;;;;10.25;6.05;;;;;;;;;;5086097;28;20150;-76
2022/01/19 05:38:11;;;;;;;8.85;4.97;;;;;;;;;;5086526;28;20430;-76
2022/01/19 05:40:37;;;;;;;8.18;4.85;;;;;;;;;;5073316;28;20505;-76
2022/01/19 05:43:03;;;;;;;11.63;5.75;;;;;;;;;;5074266;28;20438;-76
2022/01/19 05:45:29;;;;;;;9.05;5.15;;;;;;;;;;5075167;28;20042;-76
2022/01/19 05:47:56;;;;;;;8.52;4.90;;;;;;;;;;5074226;28;20036;-76
2022/01/19 05:50:24;;;;;;;7.47;4.20;;;;;;;;;;5075317;28;20115;-76
2022/01/19 05:52:50;;;;;;;5.25;3.78;;;;;;;;;;5075340;28;20036;-76
2022/01/19 05:55:16;;;;;;;7.93;4.75;;;;;;;;;;5090419;28;20035;-76
2022/01/19 05:57:42;;;;;;;7.28;4.45;;;;;;;;;;5094117;28;20126;-76
2022/01/19 06:00:09;;;;;;;6.63;4.05;;;;;;;;;;5093865;28;20051;-76
2022/01/19 06:02:35;;;;;;;7.93;4.57;;;;;;;;;;5095433;28;20028;-76
2022/01/19 06:05:02;;;;;;;7.65;4.28;;;;;;;;;;5095241;28;20148;-76
2022/01/19 06:07:28;;;;;;;8.75;5.03;;;;;;;;;;5095112;28;20418;-76
2022/01/19 06:10:06;;;;;;;13.85;6.30;;;;;;;;;;5095768;28;20058;-76
2022/01/19 06:12:32;;;;;;;12.32;7.70;;;;;;;;;;5094747;28;20028;-76
2022/01/19 06:14:59;;;;;;;14.30;8.85;;;;;;;;;;5093891;28;20193;-76
2022/01/19 06:17:25;;;;;;;13.90;8.48;;;;;;;;;;5094482;28;20032;-76
2022/01/19 06:19:51;;;;;;;11.20;6.50;;;;;;;;;;5087059;28;20040;-76
2022/01/19 06:22:18;;;;;;;13.07;7.68;;;;;;;;;;5074273;28;20028;-76
2022/01/19 06:24:45;;;;;;;17.10;10.68;;;;;;;;;;5072698;28;20115;-76
2022/01/19 06:27:11;;;;;;;11.05;6.93;;;;;;;;;;5074964;28;20032;-76
2022/01/19 06:29:38;;;;;;;13.23;7.95;;;;;;;;;;5075002;28;20063;-76
2022/01/19 06:32:04;;;;;;;13.25;7.60;;;;;;;;;;5075142;28;20032;-76
2022/01/19 06:34:30;;;;;;;13.10;7.55;;;;;;;;;;5074403;28;20032;-76
2022/01/19 06:36:56;;;;;;;11.25;4.88;;;;;;;;;;5074744;28;20178;-76
2022/01/19 06:39:23;;;;;;;15.85;8.95;;;;;;;;;;5074953;28;20036;-76
2022/01/19 06:41:49;;;;;;;12.93;7.63;;;;;;;;;;5074509;28;20189;-76
2022/01/19 06:44:15;;;;;;;12.95;7.70;;;;;;;;;;5074914;28;20467;-76
2022/01/19 06:46:42;;;;;;;10.23;7.03;;;;;;;;;;5074207;28;20124;-76
2022/01/19 06:49:09;;;;;;;10.32;7.15;;;;;;;;;;5074021;28;20446;-76
2022/01/19 06:51:35;;;;;;;12.55;7.30;;;;;;;;;;5074096;28;20106;-77
2022/01/19 06:54:01;;;;;;;10.52;6.57;;;;;;;;;;5074105;28;20037;-75
2022/01/19 06:56:27;;;;;;;13.05;6.45;;;;;;;;;;5073977;28;20051;-76
2022/01/19 06:58:54;;;;;;;11.43;6.30;;;;;;;;;;5074052;28;20036;-76
2022/01/19 07:01:20;;;;;;;12.10;7.50;;;;;;;;;;5074289;28;20043;-76
2022/01/19 07:03:46;;;;;;;14.32;8.25;;;;;;;;;;5073836;28;20036;-75
2022/01/19 07:06:12;;;;;;;22.10;13.02;;;;;;;;;;5074529;28;20036;-75
2022/01/19 07:08:39;;;;;;;24.15;13.27;;;;;;;;;;5074200;28;20119;-76
2022/01/19 07:11:05;;;;;;;18.13;10.25;;;;;;;;;;5074758;28;20033;-76
2022/01/19 07:13:32;;;;;;;24.20;13.88;;;;;;;;;;5073921;28;20085;-76
2022/01/19 07:15:58;;;;;;;19.08;10.65;;;;;;;;;;5074357;28;20044;-77
2022/01/19 07:18:24;;;;;;;21.48;11.63;;;;;;;;;;5074536;28;20049;-76
2022/01/19 07:20:50;;;;;;;19.08;11.38;;;;;;;;;;5074235;28;20044;-76
2022/01/19 07:23:16;;;;;;;15.40;10.07;;;;;;;;;;5074641;28;20036;-75
2022/01/19 07:25:43;;;;;;;17.88;10.05;;;;;;;;;;5075692;28;20506;-77
2022/01/19 07:28:11;;;;;;;23.25;13.48;;;;;;;;;;5078465;28;20042;-76
2022/01/19 07:30:37;;;;;;;17.85;10.98;;;;;;;;;;5077797;28;20505;-76
2022/01/19 07:33:04;;;;;;;16.73;10.10;;;;;;;;;;5077603;28;20112;-76
2022/01/19 07:35:30;;;;;;;20.27;11.20;;;;;;;;;;5077827;28;20044;-76
2022/01/19 07:37:56;;;;;;;46.97;24.42;;;;;;;;;;5094190;28;20050;-76
2022/01/19 07:40:22;;;;;;;49.13;24.77;;;;;;;;;;5098450;28;20032;-76
2022/01/19 07:42:49;;;;;;;51.83;24.63;;;;;;;;;;5098142;28;20094;-74
2022/01/19 07:45:15;;;;;;;38.70;19.70;;;;;;;;;;5098148;28;20110;-76
2022/01/19 07:47:41;;;;;;;42.50;21.52;;;;;;;;;;5097169;28;20044;-76
2022/01/19 07:50:08;;;;;;;34.58;17.52;;;;;;;;;;5097277;28;20028;-76
2022/01/19 07:52:34;;;;;;;35.38;19.35;;;;;;;;;;5098283;28;20058;-76
2022/01/19 07:55:00;;;;;;;33.53;18.98;;;;;;;;;;5097864;28;20028;-76
2022/01/19 07:57:27;;;;;;;35.50;20.80;;;;;;;;;;5096795;28;20047;-76
2022/01/19 07:59:54;;;;;;;43.72;24.65;;;;;;;;;;5094638;28;20122;-78
2022/01/19 08:02:20;;;;;;;37.72;21.80;;;;;;;;;;5078969;28;20070;-79
2022/01/19 08:04:46;;;;;;;43.20;25.27;;;;;;;;;;5075564;28;20037;-78
2022/01/19 08:07:12;;;;;;;38.33;21.67;;;;;;;;;;5075272;28;20115;-78
2022/01/19 08:09:40;;;;;;;37.17;21.88;;;;;;;;;;5076894;28;20067;-78
2022/01/19 08:12:06;;;;;;;39.08;23.75;;;;;;;;;;5068878;28;20041;-77
2022/01/19 08:14:33;;;;;;;37.13;23.10;;;;;;;;;;5058857;28;20099;-77
2022/01/19 08:16:59;;;;;;;35.20;21.98;;;;;;;;;;5055144;28;20408;-78
2022/01/19 08:19:25;;;;;;;29.55;18.13;;;;;;;;;;5081355;28;20048;-78
2022/01/19 08:21:52;;;;;;;40.10;25.83;;;;;;;;;;5096116;28;20036;-78
2022/01/19 08:24:18;;;;;;;35.28;23.00;;;;;;;;;;5076556;28;20039;-77
2022/01/19 08:26:44;;;;;;;28.70;19.02;;;;;;;;;;5074743;28;20032;-77
2022/01/19 08:29:10;;;;;;;34.33;21.40;;;;;;;;;;5075455;28;20064;-77
2022/01/19 08:31:37;;;;;;;28.33;19.35;;;;;;;;;;5069174;28;20060;-78
2022/01/19 08:34:04;;;;;;;21.60;15.02;;;;;;;;;;5073748;28;20036;-78
2022/01/19 08:36:30;;;;;;;18.05;11.48;;;;;;;;;;5074759;28;20037;-78
2022/01/19 08:38:57;;;;;;;20.00;13.63;;;;;;;;;;5083933;28;20174;-79
2022/01/19 08:41:23;;;;;;;19.45;13.43;;;;;;;;;;5094077;28;20168;-77
2022/01/19 08:43:49;;;;;;;16.92;10.90;;;;;;;;;;5094788;28;20092;-78
2022/01/19 08:46:16;;;;;;;7.15;4.85;;;;;;;;;;5094926;28;20036;-77
2022/01/19 08:48:42;;;;;;;7.00;4.45;;;;;;;;;;5094942;28;20043;-77
2022/01/19 08:51:08;;;;;;;12.23;7.40;;;;;;;;;;5076317;28;20036;-76
2022/01/19 08:53:35;;;;;;;8.20;5.78;;;;;;;;;;5066104;28;20575;-75
2022/01/19 08:56:01;;;;;;;7.93;5.20;;;;;;;;;;5072831;28;20032;-74
2022/01/19 08:58:27;;;;;;;5.85;4.22;;;;;;;;;;5071401;28;20124;-74
2022/01/19 09:00:53;;;;;;;6.07;3.70;;;;;;;;;;5072014;28;20040;-75
2022/01/19 09:03:19;;;;;;;4.55;3.40;;;;;;;;;;5072433;28;20098;-74
2022/01/19 09:05:46;;;;;;;3.85;3.20;;;;;;;;;;5073101;28;20039;-76
2022/01/19 09:08:12;;;;;;;5.95;3.60;;;;;;;;;;5073327;28;20040;-75
2022/01/19 09:10:40;;;;;;;5.22;3.40;;;;;;;;;;5073075;28;20434;-76
2022/01/19 09:13:06;;;;;;;3.42;3.03;;;;;;;;;;5072225;28;20097;-75
2022/01/19 09:15:33;;;;;;;3.22;2.92;;;;;;;;;;5073689;28;20051;-76
2022/01/19 09:17:59;;;;;;;2.95;2.63;;;;;;;;;;5073144;28;20252;-76
2022/01/19 09:20:25;;;;;;;20.30;11.95;;;;;;;;;;5074284;28;20040;-75
2022/01/19 09:22:51;;;;;;;102.95;53.58;;;;;;;;;;5073473;28;20479;-75
2022/01/19 09:25:18;;;;;;;21.02;12.43;;;;;;;;;;5073461;28;20039;-75
2022/01/19 09:27:44;;;;;;;5.50;4.32;;;;;;;;;;5068769;28;20044;-75
2022/01/19 09:30:14;;;;;;;6.47;5.30;;;;;;;;;;5055833;28;20061;-75
2022/01/19 09:32:40;;;;;;;11.38;4.10;;;;;;;;;;5069457;28;20051;-75
2022/01/19 09:35:09;;;;;;;8.48;5.75;;;;;;;;;;5068501;28;20044;-75
2022/01/19 09:37:36;;;;;;;16.30;4.57;;;;;;;;;;5056492;28;20067;-75
2022/01/19 09:40:03;;;;;;;9.13;5.30;;;;;;;;;;5063880;28;20120;-75
2022/01/19 09:42:30;;;;;;;5.25;3.40;;;;;;;;;;5071923;28;20823;-75
2022/01/19 09:44:56;;;;;;;4.75;2.97;;;;;;;;;;5069031;28;20360;-76
2022/01/19 09:47:22;;;;;;;3.33;2.33;;;;;;;;;;5070515;28;20563;-75
2022/01/19 09:49:48;;;;;;;2.85;2.20;;;;;;;;;;5072706;28;20063;-75
2022/01/19 09:52:14;;;;;;;3.63;2.50;;;;;;;;;;5072893;28;20089;-75
2022/01/19 09:54:40;;;;;;;2.10;1.77;;;;;;;;;;5072389;28;20036;-75
2022/01/19 09:57:07;;;;;;;4.13;2.22;;;;;;;;;;5071128;28;20098;-76
2022/01/19 09:59:33;;;;;;;3.13;2.28;;;;;;;;;;5073001;28;20032;-73
2022/01/19 10:02:04;;;;;;;22.27;13.65;;;;;;;;;;5072546;28;20195;-76
2022/01/19 10:04:35;;;;;;;2.33;1.77;;;;;;;;;;5072934;28;20044;-76
2022/01/19 10:07:15;;;;;;;2.30;1.60;;;;;;;;;;5073264;28;20517;-76
2022/01/19 10:09:59;;;;;;;1.97;1.63;;;;;;;;;;5072863;28;20029;-75
2022/01/19 10:18:14;;;;;;;1.67;1.33;;;;;;;;;;5072517;28;20543;-76
2022/01/19 10:20:40;;;;;;;2.33;1.50;;;;;;;;;;5072767;28;20080;-75
2022/01/19 10:23:13;;;;;;;3.53;1.30;;;;;;;;;;5072720;28;20036;-76
2022/01/19 10:25:49;;;;;;;1.67;1.40;;;;;;;;;;5072285;28;20051;-75
2022/01/19 10:28:16;;;;;;;1.92;1.35;;;;;;;;;;5072852;28;20029;-77
2022/01/19 10:30:42;;;;;;;2.03;1.50;;;;;;;;;;5072745;28;20040;-75
2022/01/19 10:33:08;;;;;;;1.90;1.33;;;;;;;;;;5072248;28;20071;-75
2022/01/19 10:35:36;;;;;;;1.67;1.38;;;;;;;;;;5072703;28;20033;-76
2022/01/19 10:38:24;;;;;;;4.90;1.67;;;;;;;;;;5082577;28;20036;-76
2022/01/19 10:40:59;;;;;;;1.90;1.65;;;;;;;;;;5093000;28;20048;-75
2022/01/19 10:43:30;;;;;;;3.28;1.85;;;;;;;;;;5091461;28;20040;-76
2022/01/19 10:45:57;;;;;;;2.80;1.83;;;;;;;;;;5092499;28;20036;-76
2022/01/19 10:48:31;;;;;;;2.92;1.90;;;;;;;;;;5092297;28;20028;-75
2022/01/19 10:51:09;;;;;;;3.28;2.00;;;;;;;;;;5080917;28;20028;-77
2022/01/19 10:53:35;;;;;;;2.47;1.80;;;;;;;;;;5072280;28;20040;-75
2022/01/19 10:56:05;;;;;;;2.15;1.92;;;;;;;;;;5071953;28;20099;-74
2022/01/19 10:58:32;;;;;;;1.55;1.40;;;;;;;;;;5072500;28;20051;-75
2022/01/19 11:00:58;;;;;;;2.20;1.70;;;;;;;;;;5073433;28;20044;-75
2022/01/19 11:03:26;;;;;;;2.53;1.80;;;;;;;;;;5076540;28;20040;-74
2022/01/19 11:05:54;;;;;;;2.05;1.30;;;;;;;;;;5076736;28;20062;-76
2022/01/19 11:08:21;;;;;;;3.28;1.90;;;;;;;;;;5075633;28;20131;-75
2022/01/19 11:10:49;;;;;;;2.30;1.40;;;;;;;;;;5075492;28;20033;-75
2022/01/19 11:13:42;;;;;;;2.10;1.63;;;;;;;;;;5076003;28;20044;-75
2022/01/19 11:16:07;;;;;;;2.03;1.48;;;;;;;;;;5075799;28;20048;-75
2022/01/19 11:18:36;;;;;;;4.18;3.58;;;;;;;;;;5071012;28;20032;-76
2022/01/19 11:21:05;;;;;;;2.85;1.67;;;;;;;;;;5078373;28;20036;-73
2022/01/19 11:23:40;;;;;;;1.90;1.30;;;;;;;;;;5076912;28;20112;-74
2022/01/19 11:26:09;;;;;;;7.20;6.47;;;;;;;;;;5095938;28;20043;-75
2022/01/19 11:28:42;;;;;;;2.40;2.15;;;;;;;;;;5085380;28;20387;-75
2022/01/19 11:31:14;;;;;;;2.08;1.40;;;;;;;;;;5073557;28;20483;-75
2022/01/19 11:33:43;;;;;;;1.48;1.30;;;;;;;;;;5073133;28;20044;-75
2022/01/19 11:36:21;;;;;;;2.05;1.20;;;;;;;;;;5078062;28;20070;-75
2022/01/19 11:38:49;;;;;;;1.92;1.33;;;;;;;;;;5077873;28;20064;-76
2022/01/19 11:41:15;;;;;;;1.65;1.10;;;;;;;;;;5075100;28;20044;-76
2022/01/19 11:43:54;;;;;;;2.97;1.67;;;;;;;;;;5074495;28;20044;-76
2022/01/19 11:46:29;;;;;;;1.55;1.38;;;;;;;;;;5073325;28;20055;-76
2022/01/19 11:48:56;;;;;;;3.15;2.10;;;;;;;;;;5073755;28;20040;-75
2022/01/19 11:51:22;;;;;;;2.00;1.40;;;;;;;;;;5073972;28;20044;-76
2022/01/19 11:54:02;;;;;;;4.78;2.67;;;;;;;;;;5074113;28;20047;-76
2022/01/19 11:56:28;;;;;;;17.92;11.30;;;;;;;;;;5078016;28;20032;-76
2022/01/19 11:59:02;;;;;;;8.68;5.45;;;;;;;;;;5081382;28;20043;-75
2022/01/19 12:01:28;;;;;;;3.10;2.22;;;;;;;;;;5072286;28;20097;-76
2022/01/19 12:04:11;;;;;;;1.73;0.93;;;;;;;;;;5074011;28;20149;-76
2022/01/19 12:06:38;;;;;;;1.80;1.38;;;;;;;;;;5072263;28;20044;-75
2022/01/19 12:09:06;;;;;;;4.20;2.13;;;;;;;;;;5074470;28;20040;-75
2022/01/19 12:11:35;;;;;;;3.17;2.63;;;;;;;;;;5074305;28;20036;-76
2022/01/19 12:14:21;;;;;;;6.38;4.47;;;;;;;;;;5074404;28;20048;-76
2022/01/19 12:16:57;;;;;;;2.60;1.55;;;;;;;;;;5074456;28;20032;-76
2022/01/19 12:19:27;;;;;;;4.70;3.35;;;;;;;;;;5074271;28;20051;-76
2022/01/19 12:22:06;;;;;;;6.60;4.03;;;;;;;;;;5074884;28;20366;-75
2022/01/19 12:24:44;;;;;;;5.63;4.00;;;;;;;;;;5074834;28;20056;-75
2022/01/19 12:27:14;;;;;;;4.03;3.15;;;;;;;;;;5073626;28;20078;-76
2022/01/19 12:29:43;;;;;;;4.72;3.85;;;;;;;;;;5074453;28;20147;-75
2022/01/19 12:32:20;;;;;;;2.95;1.70;;;;;;;;;;5074152;28;20111;-75
2022/01/19 12:34:46;;;;;;;2.63;2.13;;;;;;;;;;5074391;28;20068;-75
2022/01/19 12:37:13;;;;;;;3.08;2.35;;;;;;;;;;5074310;28;20040;-75
2022/01/19 12:39:41;;;;;;;3.70;3.03;;;;;;;;;;5073873;28;20421;-75
2022/01/19 12:42:14;;;;;;;4.35;2.97;;;;;;;;;;5074099;28;20068;-75
2022/01/19 12:44:54;;;;;;;5.95;4.28;;;;;;;;;;5074138;28;20036;-75
2022/01/19 12:47:27;;;;;;;9.60;5.03;;;;;;;;;;5074677;28;20064;-75
2022/01/19 12:49:54;;;;;;;10.65;5.53;;;;;;;;;;5073370;28;20078;-75
2022/01/19 12:52:21;;;;;;;7.07;4.57;;;;;;;;;;5074449;28;20127;-75
2022/01/19 12:54:47;;;;;;;4.15;3.40;;;;;;;;;;5074180;28;20024;-75
2022/01/19 12:57:17;;;;;;;7.22;4.03;;;;;;;;;;5073743;28;20182;-75
2022/01/19 12:59:44;;;;;;;4.35;3.10;;;;;;;;;;5074204;28;20040;-75
2022/01/19 13:02:13;;;;;;;5.10;3.30;;;;;;;;;;5074505;28;20044;-75
2022/01/19 13:04:40;;;;;;;3.78;2.72;;;;;;;;;;5072693;28;20031;-75
2022/01/19 13:07:19;;;;;;;4.93;3.17;;;;;;;;;;5073818;28;20188;-75
2022/01/19 13:10:37;;;;;;;4.68;3.00;;;;;;;;;;5073686;28;20047;-75
2022/01/19 13:13:14;;;;;;;3.05;1.85;;;;;;;;;;5072764;28;20077;-75
2022/01/19 13:16:04;;;;;;;3.47;2.70;;;;;;;;;;5074172;28;20057;-76
2022/01/19 13:18:30;;;;;;;3.20;2.15;;;;;;;;;;5068513;28;20118;-75
2022/01/19 13:20:57;;;;;;;4.03;2.58;;;;;;;;;;5073610;28;20029;-75
2022/01/19 13:23:24;;;;;;;1.95;1.73;;;;;;;;;;5073223;28;20036;-75
2022/01/19 13:26:01;;;;;;;2.42;2.15;;;;;;;;;;5073162;28;20028;-75
2022/01/19 13:28:30;;;;;;;3.65;2.50;;;;;;;;;;5073999;28;20036;-76
2022/01/19 13:30:58;;;;;;;4.13;2.70;;;;;;;;;;5073588;28;20111;-75
2022/01/19 13:33:26;;;;;;;3.58;2.60;;;;;;;;;;5088386;28;20032;-75
2022/01/19 13:35:59;;;;;;;3.20;2.53;;;;;;;;;;5072416;28;20024;-75
2022/01/19 13:38:26;;;;;;;23.00;4.95;;;;;;;;;;5073041;28;20044;-75
2022/01/19 13:41:01;;;;;;;7.80;2.80;;;;;;;;;;5073549;28;20036;-75
2022/01/19 13:43:27;;;;;;;14.80;3.88;;;;;;;;;;5072888;28;20040;-76
2022/01/19 13:46:01;;;;;;;3.22;2.35;;;;;;;;;;5072001;28;20029;-76
2022/01/19 13:48:28;;;;;;;3.58;2.47;;;;;;;;;;5073604;28;20137;-76
2022/01/19 13:51:25;;;;;;;4.18;2.53;;;;;;;;;;5079494;28;20036;-76
2022/01/19 13:53:53;;;;;;;2.47;2.05;;;;;;;;;;5074834;28;20114;-75
2022/01/19 13:56:28;;;;;;;6.40;2.95;;;;;;;;;;5072148;28;20315;-78
2022/01/19 13:58:56;;;;;;;2.45;2.20;;;;;;;;;;5071749;28;20043;-76
2022/01/19 14:01:33;;;;;;;3.85;2.70;;;;;;;;;;5070026;28;20032;-76
2022/01/19 14:04:03;;;;;;;2.50;2.28;;;;;;;;;;5068965;28;20549;-76
2022/01/19 14:06:34;;;;;;;3.47;2.80;;;;;;;;;;5073336;28;20113;-76
2022/01/19 14:09:04;;;;;;;3.60;2.17;;;;;;;;;;5072653;28;20040;-76
2022/01/19 14:11:32;;;;;;;3.50;2.40;;;;;;;;;;5072805;28;20046;-76
2022/01/19 14:14:05;;;;;;;3.92;2.83;;;;;;;;;;5071296;28;20052;-77
2022/01/19 14:16:37;;;;;;;3.63;2.63;;;;;;;;;;5071062;28;20036;-76
2022/01/19 14:19:15;;;;;;;4.10;2.50;;;;;;;;;;5071377;28;20089;-76
2022/01/19 14:22:03;;;;;;;3.45;2.80;;;;;;;;;;5071956;28;20040;-76
2022/01/19 14:24:42;;;;;;;3.17;2.28;;;;;;;;;;5072581;28;20039;-76
2022/01/19 14:27:13;;;;;;;2.70;2.30;;;;;;;;;;5073113;28;20063;-76
2022/01/19 14:29:39;;;;;;;;;;;;;;;;;;5083348;28;20035;-76
2022/01/19 14:32:05;;;;;;;2.30;1.70;;;;;;;;;;5074444;28;19909;-76
2022/01/19 14:34:42;;;;;;;2.42;2.22;;;;;;;;;;5074193;28;20054;-75
2022/01/19 14:37:13;;;;;;;5.88;4.13;;;;;;;;;;5083999;28;20043;-76
2022/01/19 14:39:45;;;;;;;4.25;3.63;;;;;;;;;;5078615;28;20107;-76
2022/01/19 14:42:12;;;;;;;4.13;3.30;;;;;;;;;;5073825;28;20032;-76
2022/01/19 14:44:42;;;;;;;4.80;3.78;;;;;;;;;;5081056;28;20101;-77
2022/01/19 14:47:25;;;;;;;2.80;2.47;;;;;;;;;;5091288;28;20116;-76
2022/01/19 14:49:51;;;;;;;2.65;2.45;;;;;;;;;;5078741;28;20036;-76
2022/01/19 14:52:18;;;;;;;2.70;2.35;;;;;;;;;;5072572;28;20044;-77
2022/01/19 14:54:44;;;;;;;3.78;3.15;;;;;;;;;;5075965;28;20115;-77
2022/01/19 14:57:10;;;;;;;4.63;2.78;;;;;;;;;;5087250;28;20048;-77
2022/01/19 14:59:37;;;;;;;5.28;2.95;;;;;;;;;;5072545;28;20383;-77
2022/01/19 15:02:04;;;;;;;4.18;3.03;;;;;;;;;;5072976;28;20043;-76
2022/01/19 15:04:30;;;;;;;3.60;2.58;;;;;;;;;;5072684;28;20048;-76
2022/01/19 15:07:00;;;;;;;4.07;2.70;;;;;;;;;;5072874;28;20131;-77
2022/01/19 15:09:27;;;;;;;4.33;2.67;;;;;;;;;;5066037;28;20060;-77
2022/01/19 15:11:53;;;;;;;3.88;2.70;;;;;;;;;;5085587;28;20552;-76
2022/01/19 15:14:19;;;;;;;3.22;2.42;;;;;;;;;;5088030;28;20048;-76
2022/01/19 15:16:46;;;;;;;3.35;2.40;;;;;;;;;;5092799;28;20479;-76
2022/01/19 15:19:12;;;;;;;3.30;2.20;;;;;;;;;;5092864;28;20048;-78
2022/01/19 15:21:38;;;;;;;3.72;2.20;;;;;;;;;;5091863;28;20391;-76
2022/01/19 15:24:05;;;;;;;3.60;2.45;;;;;;;;;;5091748;28;20479;-76
2022/01/19 15:26:32;;;;;;;5.10;2.72;;;;;;;;;;5090425;28;20605;-76
2022/01/19 15:29:00;;;;;;;3.22;2.33;;;;;;;;;;5079315;28;20063;-76
2022/01/19 15:31:27;;;;;;;2.95;2.08;;;;;;;;;;5086407;28;20387;-76
2022/01/19 15:33:53;;;;;;;3.60;2.78;;;;;;;;;;5090287;28;20031;-75
2022/01/19 15:36:19;;;;;;;3.67;2.40;;;;;;;;;;5072306;28;20036;-76
2022/01/19 15:38:45;;;;;;;2.88;2.58;;;;;;;;;;5071893;28;20070;-72
2022/01/19 15:41:13;;;;;;;19.40;14.20;;;;;;;;;;5071788;28;20086;-75
2022/01/19 15:43:39;;;;;;;4.47;3.05;;;;;;;;;;5072215;28;20037;-76
2022/01/19 15:46:08;;;;;;;3.30;2.63;;;;;;;;;;5083346;28;20081;-75
2022/01/19 15:48:34;;;;;;;2.80;2.42;;;;;;;;;;5095856;28;20115;-75
2022/01/19 15:51:00;;;;;;;4.38;3.38;;;;;;;;;;5095389;28;20123;-75
2022/01/19 15:53:27;;;;;;;4.45;3.08;;;;;;;;;;5092682;28;20040;-75
2022/01/19 15:55:55;;;;;;;3.10;2.30;;;;;;;;;;5095269;28;20027;-75
2022/01/19 15:58:22;;;;;;;4.00;2.80;;;;;;;;;;5095543;28;20560;-76
2022/01/19 16:00:49;;;;;;;3.42;3.00;;;;;;;;;;5090006;28;20035;-75
2022/01/19 16:03:16;;;;;;;3.60;2.92;;;;;;;;;;5095439;28;20076;-75
2022/01/19 16:05:42;;;;;;;3.78;3.05;;;;;;;;;;5095477;28;20032;-75